sensor_id;sensor_type;location;lat;lon;timestamp;temperature;humidity
20881;DHT22;10600;53.096;8.802;2022-07-06T00:00:00;14.40;99.90
20881;DHT22;10600;53.096;8.802;2022-07-06T00:01:01;14.40;99.90
20881;DHT22;10600;53.096;8.802;2022-07-06T00:02:02;14.40;99.90
20881;DHT22;10600;53.096;8.802;2022-07-06T00:03:03;14.40;99.90
20881;DHT22;10600;53.096;8.802;2022-07-06T00:04:04;14.40;99.90
20881;DHT22;10600;53.096;8.802;2022-07-06T00:05:06;14.40;99.90
20881;DHT22;10600;53.096;8.802;2022-07-06T00:06:06;14.40;99.90
20881;DHT22;10600;53.096;8.802;2022-07-06T00:07:07;14.40;99.90
20881;DHT22;10600;53.096;8.802;2022-07-06T00:08:08;14.40;99.90
20881;DHT22;10600;53.096;8.802;2022-07-06T00:09:08;14.40;99.90
20881;DHT22;10600;53.096;8.802;2022-07-06T00:10:09;14.40;99.90
20881;DHT22;10600;53.096;8.802;2022-07-06T00:11:11;14.40;99.90
20881;DHT22;10600;53.096;8.802;2022-07-06T00:12:11;14.40;99.90
20881;DHT22;10600;53.096;8.802;2022-07-06T00:13:12;14.40;99.90
20881;DHT22;10600;53.096;8.802;2022-07-06T00:14:13;14.40;99.90
20881;DHT22;10600;53.096;8.802;2022-07-06T00:15:14;14.40;99.90
20881;DHT22;10600;53.096;8.802;2022-07-06T00:16:14;14.40;99.90
20881;DHT22;10600;53.096;8.802;2022-07-06T00:17:15;14.40;99.90
20881;DHT22;10600;53.096;8.802;2022-07-06T00:18:16;14.40;99.90
20881;DHT22;10600;53.096;8.802;2022-07-06T00:19:17;14.40;99.90
20881;DHT22;10600;53.096;8.802;2022-07-06T00:20:17;14.50;99.90
20881;DHT22;10600;53.096;8.802;2022-07-06T00:21:18;14.40;99.90
20881;DHT22;10600;53.096;8.802;2022-07-06T00:22:19;14.50;99.90
20881;DHT22;10600;53.096;8.802;2022-07-06T00:23:19;14.50;99.90
20881;DHT22;10600;53.096;8.802;2022-07-06T00:24:20;14.50;99.90
20881;DHT22;10600;53.096;8.802;2022-07-06T00:25:21;14.50;99.90
20881;DHT22;10600;53.096;8.802;2022-07-06T00:26:22;14.50;99.90
20881;DHT22;10600;53.096;8.802;2022-07-06T00:27:23;14.50;99.90
20881;DHT22;10600;53.096;8.802;2022-07-06T00:28:23;14.50;99.90
20881;DHT22;10600;53.096;8.802;2022-07-06T00:29:27;14.50;99.90
20881;DHT22;10600;53.096;8.802;2022-07-06T00:30:29;14.40;99.90
20881;DHT22;10600;53.096;8.802;2022-07-06T00:31:30;14.40;99.90
20881;DHT22;10600;53.096;8.802;2022-07-06T00:32:30;14.40;99.90
20881;DHT22;10600;53.096;8.802;2022-07-06T00:33:32;14.40;99.90
20881;DHT22;10600;53.096;8.802;2022-07-06T00:34:32;14.40;99.90
20881;DHT22;10600;53.096;8.802;2022-07-06T00:35:35;14.40;99.90
20881;DHT22;10600;53.096;8.802;2022-07-06T00:36:36;14.40;99.90
20881;DHT22;10600;53.096;8.802;2022-07-06T00:37:37;14.40;99.90
20881;DHT22;10600;53.096;8.802;2022-07-06T00:38:37;14.40;99.90
20881;DHT22;10600;53.096;8.802;2022-07-06T00:39:38;14.40;99.90
20881;DHT22;10600;53.096;8.802;2022-07-06T00:40:39;14.40;99.90
20881;DHT22;10600;53.096;8.802;2022-07-06T00:41:39;14.40;99.90
20881;DHT22;10600;53.096;8.802;2022-07-06T00:42:44;14.40;99.90
20881;DHT22;10600;53.096;8.802;2022-07-06T00:43:53;14.40;99.90
20881;DHT22;10600;53.096;8.802;2022-07-06T00:44:55;14.40;99.90
20881;DHT22;10600;53.096;8.802;2022-07-06T00:45:56;14.40;99.90
20881;DHT22;10600;53.096;8.802;2022-07-06T00:46:57;14.40;99.90
20881;DHT22;10600;53.096;8.802;2022-07-06T00:47:58;14.40;99.90
20881;DHT22;10600;53.096;8.802;2022-07-06T00:48:59;14.40;99.90
20881;DHT22;10600;53.096;8.802;2022-07-06T00:50:00;14.40;99.90
20881;DHT22;10600;53.096;8.802;2022-07-06T00:51:15;14.40;99.90
20881;DHT22;10600;53.096;8.802;2022-07-06T00:52:17;14.40;99.90
20881;DHT22;10600;53.096;8.802;2022-07-06T00:53:18;14.50;99.90
20881;DHT22;10600;53.096;8.802;2022-07-06T00:54:18;14.50;99.90
20881;DHT22;10600;53.096;8.802;2022-07-06T00:55:24;14.50;99.90
20881;DHT22;10600;53.096;8.802;2022-07-06T00:56:26;14.50;99.90
20881;DHT22;10600;53.096;8.802;2022-07-06T00:57:29;14.50;99.90
20881;DHT22;10600;53.096;8.802;2022-07-06T00:58:29;14.50;99.90
20881;DHT22;10600;53.096;8.802;2022-07-06T00:59:30;14.50;99.90
20881;DHT22;10600;53.096;8.802;2022-07-06T01:00:32;14.50;99.90
20881;DHT22;10600;53.096;8.802;2022-07-06T01:01:33;14.50;99.90
20881;DHT22;10600;53.096;8.802;2022-07-06T01:02:34;14.50;99.90
20881;DHT22;10600;53.096;8.802;2022-07-06T01:03:35;14.50;99.90
20881;DHT22;10600;53.096;8.802;2022-07-06T01:04:36;14.50;99.90
20881;DHT22;10600;53.096;8.802;2022-07-06T01:05:36;14.50;99.90
20881;DHT22;10600;53.096;8.802;2022-07-06T01:06:38;14.50;99.90
20881;DHT22;10600;53.096;8.802;2022-07-06T01:07:40;14.50;99.90
20881;DHT22;10600;53.096;8.802;2022-07-06T01:08:41;14.50;99.90
20881;DHT22;10600;53.096;8.802;2022-07-06T01:09:42;14.50;99.90
20881;DHT22;10600;53.096;8.802;2022-07-06T01:10:44;14.50;99.90
20881;DHT22;10600;53.096;8.802;2022-07-06T01:11:45;14.50;99.90
20881;DHT22;10600;53.096;8.802;2022-07-06T01:12:47;14.50;99.90
20881;DHT22;10600;53.096;8.802;2022-07-06T01:13:49;14.50;99.90
20881;DHT22;10600;53.096;8.802;2022-07-06T01:14:50;14.50;99.90
20881;DHT22;10600;53.096;8.802;2022-07-06T01:15:51;14.50;99.90
20881;DHT22;10600;53.096;8.802;2022-07-06T01:16:52;14.50;99.90
20881;DHT22;10600;53.096;8.802;2022-07-06T01:17:53;14.50;99.90
20881;DHT22;10600;53.096;8.802;2022-07-06T01:18:54;14.50;99.90
20881;DHT22;10600;53.096;8.802;2022-07-06T01:19:55;14.50;99.90
20881;DHT22;10600;53.096;8.802;2022-07-06T01:21:10;14.50;99.90
20881;DHT22;10600;53.096;8.802;2022-07-06T01:22:10;14.50;99.90
20881;DHT22;10600;53.096;8.802;2022-07-06T01:23:11;14.40;99.90
20881;DHT22;10600;53.096;8.802;2022-07-06T01:24:12;14.40;99.90
20881;DHT22;10600;53.096;8.802;2022-07-06T01:25:13;14.40;99.90
20881;DHT22;10600;53.096;8.802;2022-07-06T01:26:16;14.50;99.90
20881;DHT22;10600;53.096;8.802;2022-07-06T01:27:20;14.50;99.90
20881;DHT22;10600;53.096;8.802;2022-07-06T01:28:21;14.50;99.90
20881;DHT22;10600;53.096;8.802;2022-07-06T01:29:22;14.40;99.90
20881;DHT22;10600;53.096;8.802;2022-07-06T01:30:23;14.40;99.90
20881;DHT22;10600;53.096;8.802;2022-07-06T01:31:25;14.40;99.90
20881;DHT22;10600;53.096;8.802;2022-07-06T01:32:26;14.50;99.90
20881;DHT22;10600;53.096;8.802;2022-07-06T01:33:27;14.40;99.90
20881;DHT22;10600;53.096;8.802;2022-07-06T01:34:28;14.40;99.90
20881;DHT22;10600;53.096;8.802;2022-07-06T01:35:31;14.40;99.90
20881;DHT22;10600;53.096;8.802;2022-07-06T01:36:35;14.40;99.90
20881;DHT22;10600;53.096;8.802;2022-07-06T01:37:36;14.40;99.90
20881;DHT22;10600;53.096;8.802;2022-07-06T01:38:51;14.40;99.90
20881;DHT22;10600;53.096;8.802;2022-07-06T01:39:52;14.40;99.90
20881;DHT22;10600;53.096;8.802;2022-07-06T01:40:53;14.40;99.90
20881;DHT22;10600;53.096;8.802;2022-07-06T01:41:53;14.40;99.90
20881;DHT22;10600;53.096;8.802;2022-07-06T01:42:54;14.40;99.90
20881;DHT22;10600;53.096;8.802;2022-07-06T01:43:55;14.40;99.90
20881;DHT22;10600;53.096;8.802;2022-07-06T01:44:56;14.40;99.90
20881;DHT22;10600;53.096;8.802;2022-07-06T01:45:56;14.40;99.90
20881;DHT22;10600;53.096;8.802;2022-07-06T01:46:57;14.40;99.90
20881;DHT22;10600;53.096;8.802;2022-07-06T01:47:58;14.40;99.90
20881;DHT22;10600;53.096;8.802;2022-07-06T01:48:58;14.40;99.90
20881;DHT22;10600;53.096;8.802;2022-07-06T01:50:00;14.40;99.90
20881;DHT22;10600;53.096;8.802;2022-07-06T01:51:02;14.40;99.90
20881;DHT22;10600;53.096;8.802;2022-07-06T01:52:03;14.40;99.90
20881;DHT22;10600;53.096;8.802;2022-07-06T01:53:04;14.30;99.90
20881;DHT22;10600;53.096;8.802;2022-07-06T01:54:04;14.30;99.90
20881;DHT22;10600;53.096;8.802;2022-07-06T01:55:06;14.40;99.90
20881;DHT22;10600;53.096;8.802;2022-07-06T01:56:07;14.30;99.90
20881;DHT22;10600;53.096;8.802;2022-07-06T01:57:07;14.30;99.90
20881;DHT22;10600;53.096;8.802;2022-07-06T01:58:08;14.30;99.90
20881;DHT22;10600;53.096;8.802;2022-07-06T01:59:09;14.30;99.90
20881;DHT22;10600;53.096;8.802;2022-07-06T02:00:10;14.30;99.90
20881;DHT22;10600;53.096;8.802;2022-07-06T02:01:13;14.30;99.90
20881;DHT22;10600;53.096;8.802;2022-07-06T02:02:14;14.30;99.90
20881;DHT22;10600;53.096;8.802;2022-07-06T02:03:15;14.30;99.90
20881;DHT22;10600;53.096;8.802;2022-07-06T02:04:16;14.30;99.90
20881;DHT22;10600;53.096;8.802;2022-07-06T02:05:17;14.30;99.90
20881;DHT22;10600;53.096;8.802;2022-07-06T02:06:17;14.30;99.90
20881;DHT22;10600;53.096;8.802;2022-07-06T02:07:18;14.30;99.90
20881;DHT22;10600;53.096;8.802;2022-07-06T02:08:19;14.30;99.90
20881;DHT22;10600;53.096;8.802;2022-07-06T02:09:19;14.30;99.90
20881;DHT22;10600;53.096;8.802;2022-07-06T02:10:20;14.30;99.90
20881;DHT22;10600;53.096;8.802;2022-07-06T02:11:21;14.30;99.90
20881;DHT22;10600;53.096;8.802;2022-07-06T02:12:21;14.30;99.90
20881;DHT22;10600;53.096;8.802;2022-07-06T02:13:22;14.30;99.90
20881;DHT22;10600;53.096;8.802;2022-07-06T02:14:23;14.20;99.90
20881;DHT22;10600;53.096;8.802;2022-07-06T02:15:24;14.30;99.90
20881;DHT22;10600;53.096;8.802;2022-07-06T02:16:25;14.30;99.90
20881;DHT22;10600;53.096;8.802;2022-07-06T02:17:25;14.20;99.90
20881;DHT22;10600;53.096;8.802;2022-07-06T02:18:26;14.20;99.90
20881;DHT22;10600;53.096;8.802;2022-07-06T02:19:27;14.20;99.90
20881;DHT22;10600;53.096;8.802;2022-07-06T02:20:28;14.30;99.90
20881;DHT22;10600;53.096;8.802;2022-07-06T02:21:28;14.20;99.90
20881;DHT22;10600;53.096;8.802;2022-07-06T02:22:29;14.20;99.90
20881;DHT22;10600;53.096;8.802;2022-07-06T02:23:30;14.30;99.90
20881;DHT22;10600;53.096;8.802;2022-07-06T02:24:31;14.20;99.90
20881;DHT22;10600;53.096;8.802;2022-07-06T02:25:31;14.30;99.90
20881;DHT22;10600;53.096;8.802;2022-07-06T02:26:32;14.20;99.90
20881;DHT22;10600;53.096;8.802;2022-07-06T02:27:33;14.20;99.90
20881;DHT22;10600;53.096;8.802;2022-07-06T02:28:33;14.20;99.90
20881;DHT22;10600;53.096;8.802;2022-07-06T02:29:34;14.30;99.90
20881;DHT22;10600;53.096;8.802;2022-07-06T02:30:35;14.30;99.90
20881;DHT22;10600;53.096;8.802;2022-07-06T02:31:35;14.20;99.90
20881;DHT22;10600;53.096;8.802;2022-07-06T02:32:36;14.20;99.90
20881;DHT22;10600;53.096;8.802;2022-07-06T02:33:37;14.30;99.90
20881;DHT22;10600;53.096;8.802;2022-07-06T02:34:37;14.30;99.90
20881;DHT22;10600;53.096;8.802;2022-07-06T02:35:38;14.20;99.90
20881;DHT22;10600;53.096;8.802;2022-07-06T02:36:42;14.20;99.90
20881;DHT22;10600;53.096;8.802;2022-07-06T02:37:43;14.20;99.90
20881;DHT22;10600;53.096;8.802;2022-07-06T02:38:43;14.20;99.90
20881;DHT22;10600;53.096;8.802;2022-07-06T02:39:44;14.20;99.90
20881;DHT22;10600;53.096;8.802;2022-07-06T02:40:45;14.30;99.90
20881;DHT22;10600;53.096;8.802;2022-07-06T02:41:45;14.20;99.90
20881;DHT22;10600;53.096;8.802;2022-07-06T02:42:46;14.20;99.90
20881;DHT22;10600;53.096;8.802;2022-07-06T02:43:47;14.20;99.90
20881;DHT22;10600;53.096;8.802;2022-07-06T02:44:48;14.20;99.90
20881;DHT22;10600;53.096;8.802;2022-07-06T02:45:48;14.20;99.90
20881;DHT22;10600;53.096;8.802;2022-07-06T02:46:49;14.20;99.90
20881;DHT22;10600;53.096;8.802;2022-07-06T02:47:49;14.30;99.90
20881;DHT22;10600;53.096;8.802;2022-07-06T02:48:51;14.20;99.90
20881;DHT22;10600;53.096;8.802;2022-07-06T02:49:52;14.20;99.90
20881;DHT22;10600;53.096;8.802;2022-07-06T02:50:53;14.20;99.90
20881;DHT22;10600;53.096;8.802;2022-07-06T02:51:53;14.30;99.90
20881;DHT22;10600;53.096;8.802;2022-07-06T02:52:54;14.20;99.90
20881;DHT22;10600;53.096;8.802;2022-07-06T02:53:55;14.20;99.90
20881;DHT22;10600;53.096;8.802;2022-07-06T02:54:56;14.20;99.90
20881;DHT22;10600;53.096;8.802;2022-07-06T02:55:57;14.20;99.90
20881;DHT22;10600;53.096;8.802;2022-07-06T02:56:57;14.20;99.90
20881;DHT22;10600;53.096;8.802;2022-07-06T02:57:58;14.20;99.90
20881;DHT22;10600;53.096;8.802;2022-07-06T02:58:59;14.20;99.90
20881;DHT22;10600;53.096;8.802;2022-07-06T02:59:59;14.20;99.90
20881;DHT22;10600;53.096;8.802;2022-07-06T03:01:00;14.20;99.90
20881;DHT22;10600;53.096;8.802;2022-07-06T03:02:00;14.20;99.90
20881;DHT22;10600;53.096;8.802;2022-07-06T03:03:01;14.20;99.90
20881;DHT22;10600;53.096;8.802;2022-07-06T03:04:02;14.20;99.90
20881;DHT22;10600;53.096;8.802;2022-07-06T03:05:03;14.20;99.90
20881;DHT22;10600;53.096;8.802;2022-07-06T03:06:04;14.20;99.90
20881;DHT22;10600;53.096;8.802;2022-07-06T03:07:05;14.20;99.90
20881;DHT22;10600;53.096;8.802;2022-07-06T03:08:06;14.20;99.90
20881;DHT22;10600;53.096;8.802;2022-07-06T03:09:06;14.20;99.90
20881;DHT22;10600;53.096;8.802;2022-07-06T03:10:07;14.20;99.90
20881;DHT22;10600;53.096;8.802;2022-07-06T03:11:08;14.20;99.90
20881;DHT22;10600;53.096;8.802;2022-07-06T03:12:10;14.10;99.90
20881;DHT22;10600;53.096;8.802;2022-07-06T03:13:10;14.20;99.90
20881;DHT22;10600;53.096;8.802;2022-07-06T03:14:11;14.10;99.90
20881;DHT22;10600;53.096;8.802;2022-07-06T03:15:12;14.20;99.90
20881;DHT22;10600;53.096;8.802;2022-07-06T03:16:12;14.20;99.90
20881;DHT22;10600;53.096;8.802;2022-07-06T03:17:13;14.20;99.90
20881;DHT22;10600;53.096;8.802;2022-07-06T03:18:14;14.10;99.90
20881;DHT22;10600;53.096;8.802;2022-07-06T03:19:15;14.10;99.90
20881;DHT22;10600;53.096;8.802;2022-07-06T03:20:15;14.10;99.90
20881;DHT22;10600;53.096;8.802;2022-07-06T03:21:16;14.10;99.90
20881;DHT22;10600;53.096;8.802;2022-07-06T03:22:17;14.10;99.90
20881;DHT22;10600;53.096;8.802;2022-07-06T03:23:17;14.10;99.90
20881;DHT22;10600;53.096;8.802;2022-07-06T03:24:18;14.10;99.90
20881;DHT22;10600;53.096;8.802;2022-07-06T03:25:19;14.10;99.90
20881;DHT22;10600;53.096;8.802;2022-07-06T03:26:19;14.20;99.90
20881;DHT22;10600;53.096;8.802;2022-07-06T03:27:20;14.20;99.90
20881;DHT22;10600;53.096;8.802;2022-07-06T03:28:21;14.20;99.90
20881;DHT22;10600;53.096;8.802;2022-07-06T03:29:21;14.10;99.90
20881;DHT22;10600;53.096;8.802;2022-07-06T03:30:22;14.10;99.90
20881;DHT22;10600;53.096;8.802;2022-07-06T03:31:23;14.10;99.90
20881;DHT22;10600;53.096;8.802;2022-07-06T03:32:23;14.20;99.90
20881;DHT22;10600;53.096;8.802;2022-07-06T03:33:24;14.20;99.90
20881;DHT22;10600;53.096;8.802;2022-07-06T03:34:25;14.10;99.90
20881;DHT22;10600;53.096;8.802;2022-07-06T03:35:26;14.10;99.90
20881;DHT22;10600;53.096;8.802;2022-07-06T03:36:27;14.20;99.90
20881;DHT22;10600;53.096;8.802;2022-07-06T03:37:27;14.10;99.90
20881;DHT22;10600;53.096;8.802;2022-07-06T03:38:28;14.20;99.90
20881;DHT22;10600;53.096;8.802;2022-07-06T03:39:29;14.20;99.90
20881;DHT22;10600;53.096;8.802;2022-07-06T03:40:29;14.20;99.90
20881;DHT22;10600;53.096;8.802;2022-07-06T03:41:30;14.20;99.90
20881;DHT22;10600;53.096;8.802;2022-07-06T03:42:31;14.20;99.90
20881;DHT22;10600;53.096;8.802;2022-07-06T03:43:32;14.20;99.90
20881;DHT22;10600;53.096;8.802;2022-07-06T03:44:32;14.20;99.90
20881;DHT22;10600;53.096;8.802;2022-07-06T03:45:33;14.20;99.90
20881;DHT22;10600;53.096;8.802;2022-07-06T03:46:34;14.20;99.90
20881;DHT22;10600;53.096;8.802;2022-07-06T03:47:35;14.30;99.90
20881;DHT22;10600;53.096;8.802;2022-07-06T03:48:36;14.30;99.90
20881;DHT22;10600;53.096;8.802;2022-07-06T03:49:36;14.30;99.90
20881;DHT22;10600;53.096;8.802;2022-07-06T03:50:37;14.30;99.90
20881;DHT22;10600;53.096;8.802;2022-07-06T03:51:38;14.30;99.90
20881;DHT22;10600;53.096;8.802;2022-07-06T03:52:40;14.30;99.90
20881;DHT22;10600;53.096;8.802;2022-07-06T03:53:40;14.30;99.90
20881;DHT22;10600;53.096;8.802;2022-07-06T03:54:41;14.30;99.90
20881;DHT22;10600;53.096;8.802;2022-07-06T03:55:42;14.20;99.90
20881;DHT22;10600;53.096;8.802;2022-07-06T03:56:42;14.20;99.90
20881;DHT22;10600;53.096;8.802;2022-07-06T03:57:43;14.30;99.90
20881;DHT22;10600;53.096;8.802;2022-07-06T03:58:44;14.30;99.90
20881;DHT22;10600;53.096;8.802;2022-07-06T03:59:44;14.30;99.90
20881;DHT22;10600;53.096;8.802;2022-07-06T04:00:45;14.30;99.90
20881;DHT22;10600;53.096;8.802;2022-07-06T04:01:46;14.30;99.90
20881;DHT22;10600;53.096;8.802;2022-07-06T04:02:46;14.30;99.90
20881;DHT22;10600;53.096;8.802;2022-07-06T04:03:47;14.30;99.90
20881;DHT22;10600;53.096;8.802;2022-07-06T04:04:48;14.30;99.90
20881;DHT22;10600;53.096;8.802;2022-07-06T04:05:49;14.30;99.90
20881;DHT22;10600;53.096;8.802;2022-07-06T04:06:49;14.30;99.90
20881;DHT22;10600;53.096;8.802;2022-07-06T04:07:50;14.30;99.90
20881;DHT22;10600;53.096;8.802;2022-07-06T04:08:51;14.30;99.90
20881;DHT22;10600;53.096;8.802;2022-07-06T04:09:52;14.30;99.90
20881;DHT22;10600;53.096;8.802;2022-07-06T04:10:52;14.30;99.90
20881;DHT22;10600;53.096;8.802;2022-07-06T04:11:53;14.30;99.90
20881;DHT22;10600;53.096;8.802;2022-07-06T04:12:54;14.30;99.90
20881;DHT22;10600;53.096;8.802;2022-07-06T04:13:54;14.30;99.90
20881;DHT22;10600;53.096;8.802;2022-07-06T04:14:58;14.30;99.90
20881;DHT22;10600;53.096;8.802;2022-07-06T04:15:59;14.30;99.90
20881;DHT22;10600;53.096;8.802;2022-07-06T04:16:59;14.30;99.90
20881;DHT22;10600;53.096;8.802;2022-07-06T04:18:20;14.30;99.90
20881;DHT22;10600;53.096;8.802;2022-07-06T04:19:21;14.30;99.90
20881;DHT22;10600;53.096;8.802;2022-07-06T04:20:23;14.40;99.90
20881;DHT22;10600;53.096;8.802;2022-07-06T04:21:25;14.30;99.90
20881;DHT22;10600;53.096;8.802;2022-07-06T04:22:29;14.30;99.90
20881;DHT22;10600;53.096;8.802;2022-07-06T04:23:30;14.30;99.90
20881;DHT22;10600;53.096;8.802;2022-07-06T04:24:30;14.30;99.90
20881;DHT22;10600;53.096;8.802;2022-07-06T04:25:31;14.30;99.90
20881;DHT22;10600;53.096;8.802;2022-07-06T04:26:32;14.30;99.90
20881;DHT22;10600;53.096;8.802;2022-07-06T04:27:33;14.30;99.90
20881;DHT22;10600;53.096;8.802;2022-07-06T04:28:33;14.30;99.90
20881;DHT22;10600;53.096;8.802;2022-07-06T04:29:34;14.40;99.90
20881;DHT22;10600;53.096;8.802;2022-07-06T04:30:35;14.40;99.90
20881;DHT22;10600;53.096;8.802;2022-07-06T04:31:35;14.40;99.90
20881;DHT22;10600;53.096;8.802;2022-07-06T04:32:36;14.40;99.90
20881;DHT22;10600;53.096;8.802;2022-07-06T04:33:37;14.40;99.90
20881;DHT22;10600;53.096;8.802;2022-07-06T04:34:38;14.40;99.90
20881;DHT22;10600;53.096;8.802;2022-07-06T04:35:38;14.40;99.90
20881;DHT22;10600;53.096;8.802;2022-07-06T04:36:39;14.50;99.90
20881;DHT22;10600;53.096;8.802;2022-07-06T04:37:40;14.50;99.90
20881;DHT22;10600;53.096;8.802;2022-07-06T04:38:41;14.50;99.90
20881;DHT22;10600;53.096;8.802;2022-07-06T04:39:41;14.50;99.90
20881;DHT22;10600;53.096;8.802;2022-07-06T04:40:42;14.50;99.90
20881;DHT22;10600;53.096;8.802;2022-07-06T04:41:43;14.50;99.90
20881;DHT22;10600;53.096;8.802;2022-07-06T04:42:43;14.50;99.90
20881;DHT22;10600;53.096;8.802;2022-07-06T04:43:44;14.50;99.90
20881;DHT22;10600;53.096;8.802;2022-07-06T04:44:45;14.50;99.90
20881;DHT22;10600;53.096;8.802;2022-07-06T04:45:46;14.60;99.90
20881;DHT22;10600;53.096;8.802;2022-07-06T04:46:46;14.60;99.90
20881;DHT22;10600;53.096;8.802;2022-07-06T04:47:47;14.60;99.90
20881;DHT22;10600;53.096;8.802;2022-07-06T04:48:48;14.60;99.90
20881;DHT22;10600;53.096;8.802;2022-07-06T04:49:49;14.60;99.90
20881;DHT22;10600;53.096;8.802;2022-07-06T04:50:50;14.60;99.90
20881;DHT22;10600;53.096;8.802;2022-07-06T04:51:51;14.60;99.90
20881;DHT22;10600;53.096;8.802;2022-07-06T04:52:51;14.60;99.90
20881;DHT22;10600;53.096;8.802;2022-07-06T04:53:52;14.70;99.90
20881;DHT22;10600;53.096;8.802;2022-07-06T04:54:54;14.70;99.90
20881;DHT22;10600;53.096;8.802;2022-07-06T04:55:55;14.70;99.90
20881;DHT22;10600;53.096;8.802;2022-07-06T04:56:55;14.70;99.90
20881;DHT22;10600;53.096;8.802;2022-07-06T04:57:56;14.80;99.90
20881;DHT22;10600;53.096;8.802;2022-07-06T04:58:57;14.80;99.90
20881;DHT22;10600;53.096;8.802;2022-07-06T04:59:58;14.80;99.90
20881;DHT22;10600;53.096;8.802;2022-07-06T05:00:58;14.80;99.90
20881;DHT22;10600;53.096;8.802;2022-07-06T05:01:59;14.80;99.90
20881;DHT22;10600;53.096;8.802;2022-07-06T05:03:00;14.80;99.90
20881;DHT22;10600;53.096;8.802;2022-07-06T05:04:01;14.90;99.90
20881;DHT22;10600;53.096;8.802;2022-07-06T05:05:02;14.90;99.90
20881;DHT22;10600;53.096;8.802;2022-07-06T05:06:05;14.90;99.90
20881;DHT22;10600;53.096;8.802;2022-07-06T05:07:05;14.90;99.90
20881;DHT22;10600;53.096;8.802;2022-07-06T05:08:06;14.90;99.90
20881;DHT22;10600;53.096;8.802;2022-07-06T05:09:07;14.90;99.90
20881;DHT22;10600;53.096;8.802;2022-07-06T05:10:11;14.90;99.90
20881;DHT22;10600;53.096;8.802;2022-07-06T05:11:12;14.90;99.90
20881;DHT22;10600;53.096;8.802;2022-07-06T05:12:12;14.90;99.90
20881;DHT22;10600;53.096;8.802;2022-07-06T05:13:13;14.90;99.90
20881;DHT22;10600;53.096;8.802;2022-07-06T05:14:14;14.90;99.90
20881;DHT22;10600;53.096;8.802;2022-07-06T05:15:15;15.00;99.90
20881;DHT22;10600;53.096;8.802;2022-07-06T05:16:16;15.00;99.90
20881;DHT22;10600;53.096;8.802;2022-07-06T05:17:16;15.00;99.90
20881;DHT22;10600;53.096;8.802;2022-07-06T05:18:17;15.00;99.90
20881;DHT22;10600;53.096;8.802;2022-07-06T05:19:18;15.00;99.90
20881;DHT22;10600;53.096;8.802;2022-07-06T05:20:19;15.00;99.90
20881;DHT22;10600;53.096;8.802;2022-07-06T05:21:19;15.00;99.90
20881;DHT22;10600;53.096;8.802;2022-07-06T05:22:20;15.00;99.90
20881;DHT22;10600;53.096;8.802;2022-07-06T05:23:21;15.00;99.90
20881;DHT22;10600;53.096;8.802;2022-07-06T05:24:22;15.10;99.90
20881;DHT22;10600;53.096;8.802;2022-07-06T05:25:22;15.10;99.90
20881;DHT22;10600;53.096;8.802;2022-07-06T05:26:23;15.10;99.90
20881;DHT22;10600;53.096;8.802;2022-07-06T05:27:24;15.10;99.90
20881;DHT22;10600;53.096;8.802;2022-07-06T05:28:24;15.10;99.90
20881;DHT22;10600;53.096;8.802;2022-07-06T05:29:25;15.10;99.90
20881;DHT22;10600;53.096;8.802;2022-07-06T05:30:26;15.20;99.90
20881;DHT22;10600;53.096;8.802;2022-07-06T05:31:27;15.20;99.90
20881;DHT22;10600;53.096;8.802;2022-07-06T05:32:28;15.30;99.90
20881;DHT22;10600;53.096;8.802;2022-07-06T05:33:28;15.30;99.90
20881;DHT22;10600;53.096;8.802;2022-07-06T05:34:29;15.30;99.90
20881;DHT22;10600;53.096;8.802;2022-07-06T05:35:30;15.30;99.90
20881;DHT22;10600;53.096;8.802;2022-07-06T05:36:30;15.40;99.90
20881;DHT22;10600;53.096;8.802;2022-07-06T05:37:31;15.40;99.90
20881;DHT22;10600;53.096;8.802;2022-07-06T05:38:32;15.40;99.90
20881;DHT22;10600;53.096;8.802;2022-07-06T05:39:32;15.40;99.90
20881;DHT22;10600;53.096;8.802;2022-07-06T05:40:33;15.50;99.90
20881;DHT22;10600;53.096;8.802;2022-07-06T05:41:34;15.50;99.90
20881;DHT22;10600;53.096;8.802;2022-07-06T05:42:35;15.50;99.90
20881;DHT22;10600;53.096;8.802;2022-07-06T05:43:36;15.60;99.90
20881;DHT22;10600;53.096;8.802;2022-07-06T05:44:37;15.60;99.90
20881;DHT22;10600;53.096;8.802;2022-07-06T05:45:38;15.60;99.90
20881;DHT22;10600;53.096;8.802;2022-07-06T05:46:39;15.60;99.90
20881;DHT22;10600;53.096;8.802;2022-07-06T05:47:39;15.60;99.90
20881;DHT22;10600;53.096;8.802;2022-07-06T05:48:59;15.60;99.90
20881;DHT22;10600;53.096;8.802;2022-07-06T05:50:18;15.60;99.90
20881;DHT22;10600;53.096;8.802;2022-07-06T05:51:19;15.60;99.90
20881;DHT22;10600;53.096;8.802;2022-07-06T05:52:20;15.60;99.90
20881;DHT22;10600;53.096;8.802;2022-07-06T05:53:21;15.60;99.90
20881;DHT22;10600;53.096;8.802;2022-07-06T05:54:21;15.60;99.90
20881;DHT22;10600;53.096;8.802;2022-07-06T05:55:22;15.60;99.90
20881;DHT22;10600;53.096;8.802;2022-07-06T05:56:23;15.60;99.90
20881;DHT22;10600;53.096;8.802;2022-07-06T05:57:24;15.70;99.90
20881;DHT22;10600;53.096;8.802;2022-07-06T05:58:24;15.70;99.90
20881;DHT22;10600;53.096;8.802;2022-07-06T05:59:25;15.70;99.90
20881;DHT22;10600;53.096;8.802;2022-07-06T06:00:27;15.70;99.90
20881;DHT22;10600;53.096;8.802;2022-07-06T06:01:27;15.80;99.90
20881;DHT22;10600;53.096;8.802;2022-07-06T06:02:36;15.80;99.90
20881;DHT22;10600;53.096;8.802;2022-07-06T06:03:38;15.80;99.90
20881;DHT22;10600;53.096;8.802;2022-07-06T06:04:38;15.80;99.90
20881;DHT22;10600;53.096;8.802;2022-07-06T06:05:39;15.80;99.90
20881;DHT22;10600;53.096;8.802;2022-07-06T06:06:40;15.80;99.90
20881;DHT22;10600;53.096;8.802;2022-07-06T06:07:41;15.80;99.90
20881;DHT22;10600;53.096;8.802;2022-07-06T06:08:41;15.70;99.90
20881;DHT22;10600;53.096;8.802;2022-07-06T06:09:43;15.70;99.90
20881;DHT22;10600;53.096;8.802;2022-07-06T06:10:44;15.70;99.90
20881;DHT22;10600;53.096;8.802;2022-07-06T06:11:44;15.70;99.90
20881;DHT22;10600;53.096;8.802;2022-07-06T06:12:45;15.70;99.90
20881;DHT22;10600;53.096;8.802;2022-07-06T06:13:46;15.70;99.90
20881;DHT22;10600;53.096;8.802;2022-07-06T06:14:47;15.70;99.90
20881;DHT22;10600;53.096;8.802;2022-07-06T06:15:47;15.70;99.90
20881;DHT22;10600;53.096;8.802;2022-07-06T06:16:48;15.70;99.90
20881;DHT22;10600;53.096;8.802;2022-07-06T06:17:49;15.70;99.90
20881;DHT22;10600;53.096;8.802;2022-07-06T06:18:50;15.70;99.90
20881;DHT22;10600;53.096;8.802;2022-07-06T06:19:50;15.70;99.90
20881;DHT22;10600;53.096;8.802;2022-07-06T06:20:51;15.70;99.90
20881;DHT22;10600;53.096;8.802;2022-07-06T06:21:52;15.70;99.90
20881;DHT22;10600;53.096;8.802;2022-07-06T06:22:54;15.80;99.90
20881;DHT22;10600;53.096;8.802;2022-07-06T06:23:55;15.70;99.90
20881;DHT22;10600;53.096;8.802;2022-07-06T06:24:55;15.80;99.90
20881;DHT22;10600;53.096;8.802;2022-07-06T06:25:56;15.80;99.90